sensor_id;sensor_type;location;lat;lon;timestamp;temperature;humidity
33741;DHT22;20065;48.380;10.892;2022-08-21T00:02:17;16.40;99.90
33741;DHT22;20065;48.380;10.892;2022-08-21T00:05:05;16.40;99.90
33741;DHT22;20065;48.380;10.892;2022-08-21T00:07:51;16.40;99.90
33741;DHT22;20065;48.380;10.892;2022-08-21T00:10:40;16.30;99.90
33741;DHT22;20065;48.380;10.892;2022-08-21T00:13:26;16.40;99.90
33741;DHT22;20065;48.380;10.892;2022-08-21T00:16:12;16.30;99.90
33741;DHT22;20065;48.380;10.892;2022-08-21T00:18:59;16.30;99.90
33741;DHT22;20065;48.380;10.892;2022-08-21T00:21:45;16.30;99.90
33741;DHT22;20065;48.380;10.892;2022-08-21T00:24:32;16.40;99.90
33741;DHT22;20065;48.380;10.892;2022-08-21T00:27:18;16.40;99.90
33741;DHT22;20065;48.380;10.892;2022-08-21T00:30:06;16.40;99.90
33741;DHT22;20065;48.380;10.892;2022-08-21T00:32:55;16.30;99.90
33741;DHT22;20065;48.380;10.892;2022-08-21T00:35:42;16.30;99.90
33741;DHT22;20065;48.380;10.892;2022-08-21T00:38:29;16.30;99.90
33741;DHT22;20065;48.380;10.892;2022-08-21T00:41:18;16.30;99.90
33741;DHT22;20065;48.380;10.892;2022-08-21T00:44:08;16.40;99.90
33741;DHT22;20065;48.380;10.892;2022-08-21T00:46:55;16.50;99.90
33741;DHT22;20065;48.380;10.892;2022-08-21T00:49:41;16.40;99.90
33741;DHT22;20065;48.380;10.892;2022-08-21T00:52:30;16.40;99.90
33741;DHT22;20065;48.380;10.892;2022-08-21T00:55:18;16.40;99.90
33741;DHT22;20065;48.380;10.892;2022-08-21T00:58:08;16.30;99.90
33741;DHT22;20065;48.380;10.892;2022-08-21T01:00:55;16.40;99.90
33741;DHT22;20065;48.380;10.892;2022-08-21T01:03:41;16.40;99.90
33741;DHT22;20065;48.380;10.892;2022-08-21T01:06:27;16.30;99.90
33741;DHT22;20065;48.380;10.892;2022-08-21T01:09:14;16.20;99.90
33741;DHT22;20065;48.380;10.892;2022-08-21T01:12:01;16.20;99.90
33741;DHT22;20065;48.380;10.892;2022-08-21T01:14:47;16.20;99.90
33741;DHT22;20065;48.380;10.892;2022-08-21T01:17:35;16.10;99.90
33741;DHT22;20065;48.380;10.892;2022-08-21T01:20:21;16.00;99.90
33741;DHT22;20065;48.380;10.892;2022-08-21T01:23:07;16.10;99.90
33741;DHT22;20065;48.380;10.892;2022-08-21T01:25:54;16.10;99.90
33741;DHT22;20065;48.380;10.892;2022-08-21T01:28:52;16.10;99.90
33741;DHT22;20065;48.380;10.892;2022-08-21T01:32:03;16.10;99.90
33741;DHT22;20065;48.380;10.892;2022-08-21T01:34:51;16.10;99.90
33741;DHT22;20065;48.380;10.892;2022-08-21T01:37:39;16.10;99.90
33741;DHT22;20065;48.380;10.892;2022-08-21T01:40:25;16.10;99.90
33741;DHT22;20065;48.380;10.892;2022-08-21T01:43:12;16.10;99.90
33741;DHT22;20065;48.380;10.892;2022-08-21T01:45:58;16.00;99.90
33741;DHT22;20065;48.380;10.892;2022-08-21T01:48:44;16.00;99.90
33741;DHT22;20065;48.380;10.892;2022-08-21T01:51:30;16.00;99.90
33741;DHT22;20065;48.380;10.892;2022-08-21T01:54:17;16.00;99.90
33741;DHT22;20065;48.380;10.892;2022-08-21T01:57:04;16.00;99.90
33741;DHT22;20065;48.380;10.892;2022-08-21T01:59:50;16.00;99.90
33741;DHT22;20065;48.380;10.892;2022-08-21T02:02:37;16.00;99.90
33741;DHT22;20065;48.380;10.892;2022-08-21T02:05:24;16.00;99.90
33741;DHT22;20065;48.380;10.892;2022-08-21T02:08:10;15.90;99.90
33741;DHT22;20065;48.380;10.892;2022-08-21T02:10:56;16.00;99.90
33741;DHT22;20065;48.380;10.892;2022-08-21T02:13:42;15.90;99.90
33741;DHT22;20065;48.380;10.892;2022-08-21T02:16:28;15.90;99.90
33741;DHT22;20065;48.380;10.892;2022-08-21T02:19:18;15.90;99.90
33741;DHT22;20065;48.380;10.892;2022-08-21T02:22:05;16.00;99.90
33741;DHT22;20065;48.380;10.892;2022-08-21T02:24:51;16.00;99.90
33741;DHT22;20065;48.380;10.892;2022-08-21T02:27:42;16.00;99.90
33741;DHT22;20065;48.380;10.892;2022-08-21T02:30:32;15.90;99.90
33741;DHT22;20065;48.380;10.892;2022-08-21T02:33:18;15.90;99.90
33741;DHT22;20065;48.380;10.892;2022-08-21T02:36:05;16.00;99.90
33741;DHT22;20065;48.380;10.892;2022-08-21T02:38:51;16.00;99.90
33741;DHT22;20065;48.380;10.892;2022-08-21T02:41:37;16.10;99.90
33741;DHT22;20065;48.380;10.892;2022-08-21T02:44:23;15.90;99.90
33741;DHT22;20065;48.380;10.892;2022-08-21T02:47:10;15.80;99.90
33741;DHT22;20065;48.380;10.892;2022-08-21T02:49:56;15.80;99.90
33741;DHT22;20065;48.380;10.892;2022-08-21T02:52:42;15.80;99.90
33741;DHT22;20065;48.380;10.892;2022-08-21T02:55:31;15.80;99.90
33741;DHT22;20065;48.380;10.892;2022-08-21T02:58:23;15.70;99.90
33741;DHT22;20065;48.380;10.892;2022-08-21T03:01:10;15.80;99.90
33741;DHT22;20065;48.380;10.892;2022-08-21T03:03:57;16.00;99.90
33741;DHT22;20065;48.380;10.892;2022-08-21T03:06:43;15.90;99.90
33741;DHT22;20065;48.380;10.892;2022-08-21T03:09:29;15.70;99.90
33741;DHT22;20065;48.380;10.892;2022-08-21T03:12:15;15.70;99.90
33741;DHT22;20065;48.380;10.892;2022-08-21T03:15:06;15.60;99.90
33741;DHT22;20065;48.380;10.892;2022-08-21T03:17:53;15.70;99.90
33741;DHT22;20065;48.380;10.892;2022-08-21T03:20:41;15.70;99.90
33741;DHT22;20065;48.380;10.892;2022-08-21T03:23:27;15.60;99.90
33741;DHT22;20065;48.380;10.892;2022-08-21T03:26:15;15.60;99.90
33741;DHT22;20065;48.380;10.892;2022-08-21T03:29:03;15.50;99.90
33741;DHT22;20065;48.380;10.892;2022-08-21T03:31:49;15.40;99.90
33741;DHT22;20065;48.380;10.892;2022-08-21T03:34:37;15.50;99.90
33741;DHT22;20065;48.380;10.892;2022-08-21T03:37:24;15.40;99.90
33741;DHT22;20065;48.380;10.892;2022-08-21T03:40:15;15.30;99.90
33741;DHT22;20065;48.380;10.892;2022-08-21T03:43:02;15.30;99.90
33741;DHT22;20065;48.380;10.892;2022-08-21T03:45:48;15.30;99.90
33741;DHT22;20065;48.380;10.892;2022-08-21T03:48:36;15.30;99.90
33741;DHT22;20065;48.380;10.892;2022-08-21T03:51:22;15.30;99.90
33741;DHT22;20065;48.380;10.892;2022-08-21T03:54:08;15.40;99.90
33741;DHT22;20065;48.380;10.892;2022-08-21T03:56:54;15.40;99.90
33741;DHT22;20065;48.380;10.892;2022-08-21T03:59:41;15.30;99.90
33741;DHT22;20065;48.380;10.892;2022-08-21T04:02:28;15.30;99.90
33741;DHT22;20065;48.380;10.892;2022-08-21T04:05:16;15.30;99.90
33741;DHT22;20065;48.380;10.892;2022-08-21T04:08:14;15.40;99.90
33741;DHT22;20065;48.380;10.892;2022-08-21T04:11:01;15.30;99.90
33741;DHT22;20065;48.380;10.892;2022-08-21T04:13:47;15.30;99.90
33741;DHT22;20065;48.380;10.892;2022-08-21T04:16:34;15.30;99.90
33741;DHT22;20065;48.380;10.892;2022-08-21T04:19:20;15.30;99.90
33741;DHT22;20065;48.380;10.892;2022-08-21T04:22:06;15.30;99.90
33741;DHT22;20065;48.380;10.892;2022-08-21T04:24:52;15.60;99.90
33741;DHT22;20065;48.380;10.892;2022-08-21T04:27:38;15.30;99.90
33741;DHT22;20065;48.380;10.892;2022-08-21T04:30:26;15.30;99.90
33741;DHT22;20065;48.380;10.892;2022-08-21T04:33:13;15.20;99.90
33741;DHT22;20065;48.380;10.892;2022-08-21T04:35:59;15.10;99.90
33741;DHT22;20065;48.380;10.892;2022-08-21T04:38:46;15.20;99.90
33741;DHT22;20065;48.380;10.892;2022-08-21T04:41:32;15.20;99.90
33741;DHT22;20065;48.380;10.892;2022-08-21T04:44:18;15.20;99.90
33741;DHT22;20065;48.380;10.892;2022-08-21T04:47:04;15.20;99.90
33741;DHT22;20065;48.380;10.892;2022-08-21T04:49:51;15.20;99.90
33741;DHT22;20065;48.380;10.892;2022-08-21T04:52:37;15.10;99.90
33741;DHT22;20065;48.380;10.892;2022-08-21T04:55:24;15.00;99.90
33741;DHT22;20065;48.380;10.892;2022-08-21T04:58:13;15.00;99.90
33741;DHT22;20065;48.380;10.892;2022-08-21T05:01:01;14.90;99.90
33741;DHT22;20065;48.380;10.892;2022-08-21T05:03:49;14.90;99.90
33741;DHT22;20065;48.380;10.892;2022-08-21T05:06:39;14.90;99.90
33741;DHT22;20065;48.380;10.892;2022-08-21T05:09:28;15.00;99.90
33741;DHT22;20065;48.380;10.892;2022-08-21T05:12:14;15.00;99.90
33741;DHT22;20065;48.380;10.892;2022-08-21T05:15:00;15.00;99.90
33741;DHT22;20065;48.380;10.892;2022-08-21T05:17:47;15.10;99.90
33741;DHT22;20065;48.380;10.892;2022-08-21T05:20:33;15.10;99.90
33741;DHT22;20065;48.380;10.892;2022-08-21T05:23:22;15.10;99.90
33741;DHT22;20065;48.380;10.892;2022-08-21T05:26:09;15.20;99.90
33741;DHT22;20065;48.380;10.892;2022-08-21T05:28:55;15.20;99.90
33741;DHT22;20065;48.380;10.892;2022-08-21T05:31:42;15.30;99.90
33741;DHT22;20065;48.380;10.892;2022-08-21T05:34:28;15.30;99.90
33741;DHT22;20065;48.380;10.892;2022-08-21T05:37:14;15.30;99.90
33741;DHT22;20065;48.380;10.892;2022-08-21T05:40:01;15.40;99.90
33741;DHT22;20065;48.380;10.892;2022-08-21T05:42:48;15.50;99.90
33741;DHT22;20065;48.380;10.892;2022-08-21T05:45:35;15.60;99.90
33741;DHT22;20065;48.380;10.892;2022-08-21T05:48:22;15.60;99.90
33741;DHT22;20065;48.380;10.892;2022-08-21T05:51:12;15.70;99.90
33741;DHT22;20065;48.380;10.892;2022-08-21T05:53:58;15.60;99.90
33741;DHT22;20065;48.380;10.892;2022-08-21T05:56:44;15.70;99.90
33741;DHT22;20065;48.380;10.892;2022-08-21T05:59:31;15.70;99.90
33741;DHT22;20065;48.380;10.892;2022-08-21T06:02:18;15.70;99.90
33741;DHT22;20065;48.380;10.892;2022-08-21T06:05:05;15.80;99.90
33741;DHT22;20065;48.380;10.892;2022-08-21T06:07:51;15.90;99.90
33741;DHT22;20065;48.380;10.892;2022-08-21T06:10:40;15.90;99.90
33741;DHT22;20065;48.380;10.892;2022-08-21T06:13:27;16.10;99.90
33741;DHT22;20065;48.380;10.892;2022-08-21T06:16:16;16.10;99.90
33741;DHT22;20065;48.380;10.892;2022-08-21T06:19:03;16.20;99.90
33741;DHT22;20065;48.380;10.892;2022-08-21T06:21:49;16.20;99.90
33741;DHT22;20065;48.380;10.892;2022-08-21T06:24:35;16.30;99.90
33741;DHT22;20065;48.380;10.892;2022-08-21T06:27:22;16.50;99.90
33741;DHT22;20065;48.380;10.892;2022-08-21T06:30:08;16.50;99.90
33741;DHT22;20065;48.380;10.892;2022-08-21T06:32:55;16.60;99.90
33741;DHT22;20065;48.380;10.892;2022-08-21T06:35:41;16.60;99.90
33741;DHT22;20065;48.380;10.892;2022-08-21T06:38:27;16.50;99.90
33741;DHT22;20065;48.380;10.892;2022-08-21T06:41:13;16.60;99.90
33741;DHT22;20065;48.380;10.892;2022-08-21T06:44:00;16.60;99.90
33741;DHT22;20065;48.380;10.892;2022-08-21T06:46:46;16.50;99.90
33741;DHT22;20065;48.380;10.892;2022-08-21T06:49:32;16.60;99.90
33741;DHT22;20065;48.380;10.892;2022-08-21T06:52:18;16.70;99.90
33741;DHT22;20065;48.380;10.892;2022-08-21T06:55:06;16.80;99.90
33741;DHT22;20065;48.380;10.892;2022-08-21T06:57:53;16.90;99.90
33741;DHT22;20065;48.380;10.892;2022-08-21T07:00:41;16.70;99.90
33741;DHT22;20065;48.380;10.892;2022-08-21T07:03:31;16.90;99.90
33741;DHT22;20065;48.380;10.892;2022-08-21T07:06:17;17.10;99.90
33741;DHT22;20065;48.380;10.892;2022-08-21T07:09:03;17.30;99.90
33741;DHT22;20065;48.380;10.892;2022-08-21T07:11:52;17.30;99.90
33741;DHT22;20065;48.380;10.892;2022-08-21T07:14:39;17.40;99.90
33741;DHT22;20065;48.380;10.892;2022-08-21T07:17:25;17.40;99.90
33741;DHT22;20065;48.380;10.892;2022-08-21T07:20:11;17.40;99.90
33741;DHT22;20065;48.380;10.892;2022-08-21T07:23:01;17.50;99.90
33741;DHT22;20065;48.380;10.892;2022-08-21T07:25:48;17.60;99.90
33741;DHT22;20065;48.380;10.892;2022-08-21T07:28:34;17.80;99.90
33741;DHT22;20065;48.380;10.892;2022-08-21T07:31:22;17.90;99.90
33741;DHT22;20065;48.380;10.892;2022-08-21T07:34:09;18.00;99.90
33741;DHT22;20065;48.380;10.892;2022-08-21T07:36:55;18.00;99.90
33741;DHT22;20065;48.380;10.892;2022-08-21T07:39:41;18.00;99.90
33741;DHT22;20065;48.380;10.892;2022-08-21T07:42:27;18.00;99.90
33741;DHT22;20065;48.380;10.892;2022-08-21T07:45:14;17.90;99.90
33741;DHT22;20065;48.380;10.892;2022-08-21T07:48:01;18.00;99.90
33741;DHT22;20065;48.380;10.892;2022-08-21T07:50:47;18.10;99.90
33741;DHT22;20065;48.380;10.892;2022-08-21T07:53:35;18.10;99.90
33741;DHT22;20065;48.380;10.892;2022-08-21T07:56:21;18.20;99.90
33741;DHT22;20065;48.380;10.892;2022-08-21T07:59:07;18.20;99.90
33741;DHT22;20065;48.380;10.892;2022-08-21T08:01:53;18.40;99.90
33741;DHT22;20065;48.380;10.892;2022-08-21T08:04:40;18.30;99.90
33741;DHT22;20065;48.380;10.892;2022-08-21T08:07:26;18.50;99.90
33741;DHT22;20065;48.380;10.892;2022-08-21T08:10:12;18.60;99.90
33741;DHT22;20065;48.380;10.892;2022-08-21T08:12:59;18.60;99.90
33741;DHT22;20065;48.380;10.892;2022-08-21T08:15:45;18.60;99.90
33741;DHT22;20065;48.380;10.892;2022-08-21T08:18:31;18.80;99.90
33741;DHT22;20065;48.380;10.892;2022-08-21T08:21:18;19.00;99.90
33741;DHT22;20065;48.380;10.892;2022-08-21T08:24:06;18.80;99.90
33741;DHT22;20065;48.380;10.892;2022-08-21T08:26:52;18.90;99.90
33741;DHT22;20065;48.380;10.892;2022-08-21T08:29:40;18.90;99.90
33741;DHT22;20065;48.380;10.892;2022-08-21T08:32:26;18.90;99.90
33741;DHT22;20065;48.380;10.892;2022-08-21T08:35:12;19.20;99.90
33741;DHT22;20065;48.380;10.892;2022-08-21T08:37:58;19.20;99.90
33741;DHT22;20065;48.380;10.892;2022-08-21T08:43:34;19.40;99.90
33741;DHT22;20065;48.380;10.892;2022-08-21T08:46:41;19.40;99.90
33741;DHT22;20065;48.380;10.892;2022-08-21T08:52:21;19.40;99.90
33741;DHT22;20065;48.380;10.892;2022-08-21T08:55:15;19.70;99.90
33741;DHT22;20065;48.380;10.892;2022-08-21T08:58:03;19.90;99.90
33741;DHT22;20065;48.380;10.892;2022-08-21T09:00:51;20.20;99.90
33741;DHT22;20065;48.380;10.892;2022-08-21T09:03:39;20.00;99.90
33741;DHT22;20065;48.380;10.892;2022-08-21T09:25:21;21.30;99.90
33741;DHT22;20065;48.380;10.892;2022-08-21T09:28:09;21.20;99.90
33741;DHT22;20065;48.380;10.892;2022-08-21T09:30:58;21.10;99.90
33741;DHT22;20065;48.380;10.892;2022-08-21T09:33:48;21.70;99.90
33741;DHT22;20065;48.380;10.892;2022-08-21T09:36:47;22.00;99.90
33741;DHT22;20065;48.380;10.892;2022-08-21T09:39:39;21.90;99.90
33741;DHT22;20065;48.380;10.892;2022-08-21T09:42:31;22.00;99.90
33741;DHT22;20065;48.380;10.892;2022-08-21T09:45:18;22.30;99.90
33741;DHT22;20065;48.380;10.892;2022-08-21T09:48:24;22.80;99.90
33741;DHT22;20065;48.380;10.892;2022-08-21T09:51:18;23.20;99.90
33741;DHT22;20065;48.380;10.892;2022-08-21T09:57:19;23.00;99.90
33741;DHT22;20065;48.380;10.892;2022-08-21T10:00:27;23.70;99.90
33741;DHT22;20065;48.380;10.892;2022-08-21T10:06:07;24.10;99.90
33741;DHT22;20065;48.380;10.892;2022-08-21T10:09:13;24.00;99.90
33741;DHT22;20065;48.380;10.892;2022-08-21T10:18:17;24.10;99.90
33741;DHT22;20065;48.380;10.892;2022-08-21T10:24:38;24.60;99.90
33741;DHT22;20065;48.380;10.892;2022-08-21T10:30:25;24.60;99.90
33741;DHT22;20065;48.380;10.892;2022-08-21T10:33:20;24.40;99.90
33741;DHT22;20065;48.380;10.892;2022-08-21T10:36:29;25.10;99.90
33741;DHT22;20065;48.380;10.892;2022-08-21T10:39:35;24.80;99.90
33741;DHT22;20065;48.380;10.892;2022-08-21T10:45:32;25.40;99.90
33741;DHT22;20065;48.380;10.892;2022-08-21T10:48:29;25.10;99.90
33741;DHT22;20065;48.380;10.892;2022-08-21T11:00:32;26.50;99.90
33741;DHT22;20065;48.380;10.892;2022-08-21T11:03:53;26.20;99.90
33741;DHT22;20065;48.380;10.892;2022-08-21T11:06:46;26.20;99.90
33741;DHT22;20065;48.380;10.892;2022-08-21T11:09:40;26.00;99.90
33741;DHT22;20065;48.380;10.892;2022-08-21T11:22:28;25.60;99.90
33741;DHT22;20065;48.380;10.892;2022-08-21T11:41:28;26.70;99.70
33741;DHT22;20065;48.380;10.892;2022-08-21T11:56:11;25.80;99.70
33741;DHT22;20065;48.380;10.892;2022-08-21T11:59:08;26.10;98.90
33741;DHT22;20065;48.380;10.892;2022-08-21T12:01:55;26.40;97.30
33741;DHT22;20065;48.380;10.892;2022-08-21T12:04:55;26.50;96.40
33741;DHT22;20065;48.380;10.892;2022-08-21T12:07:45;26.50;96.80
33741;DHT22;20065;48.380;10.892;2022-08-21T12:10:39;26.90;96.40
33741;DHT22;20065;48.380;10.892;2022-08-21T12:13:35;26.30;95.90
33741;DHT22;20065;48.380;10.892;2022-08-21T12:16:37;26.30;97.30
33741;DHT22;20065;48.380;10.892;2022-08-21T12:22:13;26.40;95.70
33741;DHT22;20065;48.380;10.892;2022-08-21T12:25:09;26.90;96.90
33741;DHT22;20065;48.380;10.892;2022-08-21T12:28:06;27.20;96.30
33741;DHT22;20065;48.380;10.892;2022-08-21T12:30:53;27.60;94.90
33741;DHT22;20065;48.380;10.892;2022-08-21T12:33:40;27.80;97.20
33741;DHT22;20065;48.380;10.892;2022-08-21T12:36:56;27.90;96.00
33741;DHT22;20065;48.380;10.892;2022-08-21T12:39:44;27.40;91.90
33741;DHT22;20065;48.380;10.892;2022-08-21T12:42:45;27.70;93.40
33741;DHT22;20065;48.380;10.892;2022-08-21T12:45:38;27.40;91.90
33741;DHT22;20065;48.380;10.892;2022-08-21T12:52:05;27.20;96.30
33741;DHT22;20065;48.380;10.892;2022-08-21T12:54:53;28.00;94.50
33741;DHT22;20065;48.380;10.892;2022-08-21T12:57:40;28.00;92.20
33741;DHT22;20065;48.380;10.892;2022-08-21T13:00:29;26.80;92.60
33741;DHT22;20065;48.380;10.892;2022-08-21T13:03:16;27.20;93.40
33741;DHT22;20065;48.380;10.892;2022-08-21T13:06:06;28.00;93.10
33741;DHT22;20065;48.380;10.892;2022-08-21T13:09:04;27.80;91.60
33741;DHT22;20065;48.380;10.892;2022-08-21T13:11:52;28.00;90.40
33741;DHT22;20065;48.380;10.892;2022-08-21T13:14:41;28.50;91.60
33741;DHT22;20065;48.380;10.892;2022-08-21T13:17:32;28.60;86.40
33741;DHT22;20065;48.380;10.892;2022-08-21T13:20:27;28.70;85.60
33741;DHT22;20065;48.380;10.892;2022-08-21T13:23:27;28.60;86.60
33741;DHT22;20065;48.380;10.892;2022-08-21T13:26:19;28.70;88.40
33741;DHT22;20065;48.380;10.892;2022-08-21T13:29:10;30.00;86.90
33741;DHT22;20065;48.380;10.892;2022-08-21T13:32:02;29.70;86.50
33741;DHT22;20065;48.380;10.892;2022-08-21T13:34:48;29.50;87.40
33741;DHT22;20065;48.380;10.892;2022-08-21T13:37:36;30.00;90.20
33741;DHT22;20065;48.380;10.892;2022-08-21T13:40:30;29.70;88.60
33741;DHT22;20065;48.380;10.892;2022-08-21T13:43:21;30.00;86.50
33741;DHT22;20065;48.380;10.892;2022-08-21T13:46:10;30.30;84.90
33741;DHT22;20065;48.380;10.892;2022-08-21T13:48:59;30.90;82.90
33741;DHT22;20065;48.380;10.892;2022-08-21T13:51:48;30.40;84.90
33741;DHT22;20065;48.380;10.892;2022-08-21T13:54:39;31.60;85.70
33741;DHT22;20065;48.380;10.892;2022-08-21T13:57:31;31.10;81.20
33741;DHT22;20065;48.380;10.892;2022-08-21T14:00:25;30.90;84.80
33741;DHT22;20065;48.380;10.892;2022-08-21T14:03:15;30.50;84.90
33741;DHT22;20065;48.380;10.892;2022-08-21T14:06:24;30.30;85.20
33741;DHT22;20065;48.380;10.892;2022-08-21T14:09:14;30.70;84.20
33741;DHT22;20065;48.380;10.892;2022-08-21T14:12:19;31.40;86.30
33741;DHT22;20065;48.380;10.892;2022-08-21T14:15:14;30.60;81.10
33741;DHT22;20065;48.380;10.892;2022-08-21T14:18:27;30.60;82.70
33741;DHT22;20065;48.380;10.892;2022-08-21T14:21:24;31.00;79.60
33741;DHT22;20065;48.380;10.892;2022-08-21T14:24:24;31.00;82.20
33741;DHT22;20065;48.380;10.892;2022-08-21T14:27:10;30.90;81.20
33741;DHT22;20065;48.380;10.892;2022-08-21T14:30:04;31.10;82.90
33741;DHT22;20065;48.380;10.892;2022-08-21T14:32:54;30.00;84.60
33741;DHT22;20065;48.380;10.892;2022-08-21T14:35:40;28.80;83.10
33741;DHT22;20065;48.380;10.892;2022-08-21T14:38:28;27.80;84.80
33741;DHT22;20065;48.380;10.892;2022-08-21T14:41:23;27.60;90.90
33741;DHT22;20065;48.380;10.892;2022-08-21T14:44:10;27.50;89.50
33741;DHT22;20065;48.380;10.892;2022-08-21T14:46:56;27.20;90.20
33741;DHT22;20065;48.380;10.892;2022-08-21T14:49:42;26.80;90.40
33741;DHT22;20065;48.380;10.892;2022-08-21T14:52:28;26.60;90.70
33741;DHT22;20065;48.380;10.892;2022-08-21T14:55:16;26.50;91.00
33741;DHT22;20065;48.380;10.892;2022-08-21T14:58:03;26.40;92.00
33741;DHT22;20065;48.380;10.892;2022-08-21T15:00:50;26.60;92.00
33741;DHT22;20065;48.380;10.892;2022-08-21T15:03:37;26.30;91.90
33741;DHT22;20065;48.380;10.892;2022-08-21T15:06:23;25.50;92.50
33741;DHT22;20065;48.380;10.892;2022-08-21T15:09:10;25.30;93.90
33741;DHT22;20065;48.380;10.892;2022-08-21T15:11:58;25.00;94.50
33741;DHT22;20065;48.380;10.892;2022-08-21T15:14:45;25.00;95.00
33741;DHT22;20065;48.380;10.892;2022-08-21T15:17:33;25.00;94.50
33741;DHT22;20065;48.380;10.892;2022-08-21T15:20:19;24.90;94.90
33741;DHT22;20065;48.380;10.892;2022-08-21T15:23:07;25.00;94.40
33741;DHT22;20065;48.380;10.892;2022-08-21T15:25:54;24.90;94.80
33741;DHT22;20065;48.380;10.892;2022-08-21T15:28:43;24.70;94.90
33741;DHT22;20065;48.380;10.892;2022-08-21T15:31:29;24.40;95.60
33741;DHT22;20065;48.380;10.892;2022-08-21T15:34:15;24.40;96.40
33741;DHT22;20065;48.380;10.892;2022-08-21T15:37:03;24.50;97.40
33741;DHT22;20065;48.380;10.892;2022-08-21T15:39:51;24.90;94.10
33741;DHT22;20065;48.380;10.892;2022-08-21T15:42:39;25.20;94.10
33741;DHT22;20065;48.380;10.892;2022-08-21T15:45:26;25.30;93.70
33741;DHT22;20065;48.380;10.892;2022-08-21T15:48:13;25.20;93.90
33741;DHT22;20065;48.380;10.892;2022-08-21T15:50:59;25.30;94.70
33741;DHT22;20065;48.380;10.892;2022-08-21T15:53:45;25.00;93.60
33741;DHT22;20065;48.380;10.892;2022-08-21T15:56:37;25.20;94.30
33741;DHT22;20065;48.380;10.892;2022-08-21T15:59:24;25.20;94.90
33741;DHT22;20065;48.380;10.892;2022-08-21T16:02:15;25.30;93.90
33741;DHT22;20065;48.380;10.892;2022-08-21T16:05:03;25.40;93.00
33741;DHT22;20065;48.380;10.892;2022-08-21T16:07:50;25.40;92.40
33741;DHT22;20065;48.380;10.892;2022-08-21T16:10:37;25.10;92.90
33741;DHT22;20065;48.380;10.892;2022-08-21T16:13:27;24.80;93.50
33741;DHT22;20065;48.380;10.892;2022-08-21T16:16:23;25.00;93.40
33741;DHT22;20065;48.380;10.892;2022-08-21T16:19:11;24.70;93.10
33741;DHT22;20065;48.380;10.892;2022-08-21T16:21:58;24.50;94.50
33741;DHT22;20065;48.380;10.892;2022-08-21T16:24:44;24.50;95.60
33741;DHT22;20065;48.380;10.892;2022-08-21T16:27:32;24.40;94.20
33741;DHT22;20065;48.380;10.892;2022-08-21T16:30:19;24.40;94.70
33741;DHT22;20065;48.380;10.892;2022-08-21T16:33:08;24.40;94.10
33741;DHT22;20065;48.380;10.892;2022-08-21T16:35:57;24.20;93.70
33741;DHT22;20065;48.380;10.892;2022-08-21T16:38:45;24.40;94.40
33741;DHT22;20065;48.380;10.892;2022-08-21T16:41:34;24.20;93.10
33741;DHT22;20065;48.380;10.892;2022-08-21T16:44:21;24.20;94.70
33741;DHT22;20065;48.380;10.892;2022-08-21T16:47:07;24.30;94.40
33741;DHT22;20065;48.380;10.892;2022-08-21T16:49:54;24.10;93.50
33741;DHT22;20065;48.380;10.892;2022-08-21T16:52:40;24.00;93.50
33741;DHT22;20065;48.380;10.892;2022-08-21T16:55:26;24.00;93.60
33741;DHT22;20065;48.380;10.892;2022-08-21T16:58:29;24.10;94.00
33741;DHT22;20065;48.380;10.892;2022-08-21T17:01:19;24.00;92.70
33741;DHT22;20065;48.380;10.892;2022-08-21T17:04:06;23.80;92.90
33741;DHT22;20065;48.380;10.892;2022-08-21T17:06:52;23.80;94.30
33741;DHT22;20065;48.380;10.892;2022-08-21T17:09:38;23.70;94.80
33741;DHT22;20065;48.380;10.892;2022-08-21T17:12:25;23.60;94.00
33741;DHT22;20065;48.380;10.892;2022-08-21T17:15:24;23.60;94.60
33741;DHT22;20065;48.380;10.892;2022-08-21T17:18:15;23.50;95.80
33741;DHT22;20065;48.380;10.892;2022-08-21T17:21:03;23.20;95.90
33741;DHT22;20065;48.380;10.892;2022-08-21T17:23:51;23.20;96.80
33741;DHT22;20065;48.380;10.892;2022-08-21T17:26:37;23.20;96.30
33741;DHT22;20065;48.380;10.892;2022-08-21T17:29:30;23.10;97.90
33741;DHT22;20065;48.380;10.892;2022-08-21T17:32:17;23.00;97.40
33741;DHT22;20065;48.380;10.892;2022-08-21T17:35:04;23.10;96.70
33741;DHT22;20065;48.380;10.892;2022-08-21T17:37:51;22.90;97.90
33741;DHT22;20065;48.380;10.892;2022-08-21T17:40:38;22.90;97.10
33741;DHT22;20065;48.380;10.892;2022-08-21T17:43:25;22.90;96.20
33741;DHT22;20065;48.380;10.892;2022-08-21T17:46:16;22.90;98.00
33741;DHT22;20065;48.380;10.892;2022-08-21T17:49:07;22.70;99.00
33741;DHT22;20065;48.380;10.892;2022-08-21T17:51:53;22.70;96.50
33741;DHT22;20065;48.380;10.892;2022-08-21T17:54:42;22.60;98.60
33741;DHT22;20065;48.380;10.892;2022-08-21T17:57:29;22.40;97.70
33741;DHT22;20065;48.380;10.892;2022-08-21T18:00:20;22.40;98.10
33741;DHT22;20065;48.380;10.892;2022-08-21T18:03:10;22.30;99.00
33741;DHT22;20065;48.380;10.892;2022-08-21T18:06:00;22.30;99.80
33741;DHT22;20065;48.380;10.892;2022-08-21T18:08:46;22.10;99.40
33741;DHT22;20065;48.380;10.892;2022-08-21T18:11:33;22.10;99.90
33741;DHT22;20065;48.380;10.892;2022-08-21T18:14:25;22.00;99.90
33741;DHT22;20065;48.380;10.892;2022-08-21T18:17:18;21.80;99.90
33741;DHT22;20065;48.380;10.892;2022-08-21T18:20:05;21.70;99.40
33741;DHT22;20065;48.380;10.892;2022-08-21T18:22:53;21.70;99.90
33741;DHT22;20065;48.380;10.892;2022-08-21T18:25:43;21.60;99.90
33741;DHT22;20065;48.380;10.892;2022-08-21T18:28:31;21.50;99.90
33741;DHT22;20065;48.380;10.892;2022-08-21T18:31:17;21.40;99.90
33741;DHT22;20065;48.380;10.892;2022-08-21T18:34:28;21.30;99.90
33741;DHT22;20065;48.380;10.892;2022-08-21T18:37:15;21.30;99.90
33741;DHT22;20065;48.380;10.892;2022-08-21T18:40:01;21.20;99.90
33741;DHT22;20065;48.380;10.892;2022-08-21T18:42:48;21.20;99.90
33741;DHT22;20065;48.380;10.892;2022-08-21T18:45:35;21.10;99.90
33741;DHT22;20065;48.380;10.892;2022-08-21T18:48:22;21.10;99.90
33741;DHT22;20065;48.380;10.892;2022-08-21T18:51:08;21.00;99.90
33741;DHT22;20065;48.380;10.892;2022-08-21T18:53:56;21.00;99.90
33741;DHT22;20065;48.380;10.892;2022-08-21T18:56:42;20.90;99.90
33741;DHT22;20065;48.380;10.892;2022-08-21T18:59:30;20.90;99.90
33741;DHT22;20065;48.380;10.892;2022-08-21T19:02:17;20.90;99.90
33741;DHT22;20065;48.380;10.892;2022-08-21T19:05:04;20.80;99.90
33741;DHT22;20065;48.380;10.892;2022-08-21T19:07:51;20.80;99.90
33741;DHT22;20065;48.380;10.892;2022-08-21T19:10:39;20.80;99.90